Stanley Corner, South Dakota
Current Conditions -  °F | °C
As of 11:53 PM on Friday 28 Nov 2014 (Local Time) from KMHE Reporting Station
Haze Haze  
Wind Chill: 20°   Ceiling: Unl
Heat Index: 28°   Visibility: 6mi
Dew Point: 25°   Wind: 8mph
Humidity: 88%   Direction: 150°SSE
Pressure: 29.52"   Gusts: NA
Location:  43.5669°N, 97.5001°W
Report Text: KMHE 290553Z AUTO 15007KT 6SM BR CLR M02/M04 A2952 RMK AO2 SLP010 T10221039 11006 21033 400561061 56023
Loading
Personal Weather Stations






























Interactive Weather Map New forecast layout! Learn more

10-Day Weather Forecast

Advertisements
Track Severe Weather on mobile